Time;durP1;ratioP1;P1;durP2;ratioP2;P2;SDS_P1;SDS_P2;PMS_P1;PMS_P2;Temp;Humidity;BMP_temperature;BMP_pressure;BME280_temperature;BME280_humidity;BME280_pressure;Samples;Min_cycle;Max_cycle;Signal;HPM_P1;HPM_P2
2021/06/04 00:00:41;;;;;;;35.28;29.85;;;;;;;22.89;57.83;101957.09;4986103;28;110113;-64
2021/06/04 00:03:10;;;;;;;34.95;30.35;;;;;;;22.86;57.81;101956.47;4993692;28;123895;-64
2021/06/04 00:05:43;;;;;;;35.20;29.15;;;;;;;22.85;57.77;101965.56;4989491;28;124317;-65
2021/06/04 00:08:11;;;;;;;36.38;30.42;;;;;;;22.83;57.65;101956.72;4992400;28;109548;-65
2021/06/04 00:10:42;;;;;;;36.95;30.98;;;;;;;22.79;57.65;101949.84;4971623;28;109923;-64
2021/06/04 00:13:20;;;;;;;38.08;30.63;;;;;;;22.74;57.51;101959.19;4997332;28;124092;-64
2021/06/04 00:15:50;;;;;;;37.08;29.90;;;;;;;22.72;57.40;101953.03;4993598;28;123917;-64
2021/06/04 00:18:17;;;;;;;37.50;29.10;;;;;;;22.70;57.31;101957.72;4992236;28;109696;-64
2021/06/04 00:20:45;;;;;;;37.40;28.33;;;;;;;22.68;57.39;101954.28;4985333;28;110772;-65
2021/06/04 00:23:12;;;;;;;33.60;27.42;;;;;;;22.65;57.26;101954.50;4980909;28;123826;-64
2021/06/04 00:25:39;;;;;;;32.70;26.58;;;;;;;22.62;57.44;101949.34;4994691;28;123931;-64
2021/06/04 00:28:06;;;;;;;30.52;25.73;;;;;;;22.59;57.27;101960.38;4988876;28;110821;-64
2021/06/04 00:30:33;;;;;;;30.83;25.25;;;;;;;22.57;57.34;101956.94;4988809;28;110307;-64
2021/06/04 00:33:00;;;;;;;31.88;23.75;;;;;;;22.56;56.97;101952.53;4983431;28;124360;-64
2021/06/04 00:35:28;;;;;;;29.40;23.38;;;;;;;22.52;57.11;101954.59;4990446;28;123741;-64
2021/06/04 00:37:56;;;;;;;28.20;21.98;;;;;;;22.50;56.87;101951.16;4989380;28;109423;-65
2021/06/04 00:40:28;;;;;;;26.63;21.38;;;;;;;22.47;57.00;101955.94;4986690;28;109277;-65
2021/06/04 00:42:56;;;;;;;25.08;21.10;;;;;;;22.47;56.87;101950.53;4989784;28;124205;-65
2021/06/04 00:45:28;;;;;;;23.77;20.73;;;;;;;22.45;56.64;101955.19;4991166;22;124590;31
2021/06/04 00:47:56;;;;;;;24.42;20.77;;;;;;;22.44;56.62;101954.34;4982091;28;108088;-68
2021/06/04 00:50:48;;;;;;;24.13;20.38;;;;;;;22.41;56.61;101956.41;4974580;28;109433;-69
2021/06/04 00:53:19;;;;;;;22.88;20.30;;;;;;;22.42;56.64;101963.56;4979590;28;123204;-68
2021/06/04 00:55:48;;;;;;;24.30;20.23;;;;;;;22.40;56.66;101952.03;4973376;28;124164;-68
2021/06/04 00:58:20;;;;;;;23.02;19.55;;;;;;;22.38;56.57;101945.84;4973406;28;109956;-68
2021/06/04 01:00:50;;;;;;;24.70;19.58;;;;;;;22.37;56.44;101952.25;4984409;28;109339;-68
2021/06/04 01:03:22;;;;;;;23.80;19.40;;;;;;;22.35;56.51;101953.22;4971564;28;124602;-68
2021/06/04 01:06:06;;;;;;;25.08;19.33;;;;;;;22.34;56.61;101954.22;4976926;28;122897;-69
2021/06/04 01:08:55;;;;;;;23.15;18.88;;;;;;;22.31;56.33;101951.72;4971732;28;109458;-69
2021/06/04 01:11:43;;;;;;;21.92;18.55;;;;;;;22.29;56.44;101948.28;4984178;28;109304;-68
2021/06/04 01:14:18;;;;;;;21.63;17.63;;;;;;;22.28;56.36;101946.59;4972916;28;123451;-68
2021/06/04 01:17:25;;;;;;;22.63;19.48;;;;;;;22.24;56.38;101949.59;4973564;28;124425;-69
2021/06/04 01:20:06;;;;;;;23.58;18.23;;;;;;;22.20;56.26;101938.19;4960923;28;109986;-68
2021/06/04 01:22:51;;;;;;;23.17;17.73;;;;;;;22.15;56.20;101934.97;4985729;28;109681;-69
2021/06/04 01:25:37;;;;;;;21.63;18.83;;;;;;;22.12;56.34;101938.75;4969744;28;124266;-68
2021/06/04 01:28:15;;;;;;;21.75;18.67;;;;;;;22.09;56.36;101935.44;4958858;28;123515;-69
2021/06/04 01:30:53;;;;;;;24.35;19.33;;;;;;;22.03;56.21;101942.16;4986716;28;109696;-69
2021/06/04 01:33:30;;;;;;;22.92;18.83;;;;;;;22.02;56.38;101934.19;4955946;28;109357;-69
2021/06/04 01:36:01;;;;;;;23.80;18.98;;;;;;;22.01;56.51;101937.88;4971692;28;124295;-69
2021/06/04 01:38:37;;;;;;;24.13;19.65;;;;;;;21.99;56.43;101945.22;4967472;28;123552;-68
2021/06/04 01:41:11;;;;;;;24.38;19.52;;;;;;;21.97;56.56;101943.50;4982475;28;108265;-68
2021/06/04 01:43:46;;;;;;;24.27;19.98;;;;;;;21.96;56.36;101941.78;4973323;28;110389;-69
2021/06/04 01:46:32;;;;;;;25.00;20.10;;;;;;;21.93;56.44;101952.78;4976428;28;123774;-69
2021/06/04 01:49:07;;;;;;;24.65;19.50;;;;;;;21.92;56.56;101956.47;4972227;28;123166;-69
2021/06/04 01:51:42;;;;;;;23.02;19.75;;;;;;;21.91;56.59;101953.91;4972039;28;109605;-69
2021/06/04 01:54:19;;;;;;;22.80;18.80;;;;;;;21.89;56.64;101951.31;4974217;28;110545;-69
2021/06/04 01:56:54;;;;;;;22.55;20.02;;;;;;;21.87;56.55;101955.97;4986197;28;123499;-69
2021/06/04 01:59:36;;;;;;;25.45;21.25;;;;;;;21.84;56.39;101953.50;4972888;28;123303;-69
2021/06/04 02:02:35;;;;;;;28.52;19.85;;;;;;;21.80;56.23;101946.63;4971129;28;109253;-69
2021/06/04 02:05:09;;;;;;;25.03;20.27;;;;;;;21.78;56.38;101959.34;4976596;28;110215;-69
2021/06/04 02:07:37;;;;;;;23.77;19.35;;;;;;;21.74;56.58;101957.88;4972197;28;123071;-69
2021/06/04 02:10:16;;;;;;;22.58;18.85;;;;;;;21.71;56.63;101958.09;4971530;28;124058;-68
2021/06/04 02:12:48;;;;;;;23.17;20.00;;;;;;;21.67;56.58;101962.84;4973469;28;110411;-69
2021/06/04 02:15:40;;;;;;;22.73;19.95;;;;;;;21.61;56.57;101957.91;4971731;28;110414;-69
2021/06/04 02:18:27;;;;;;;27.02;20.52;;;;;;;21.55;56.59;101956.53;4971605;28;124045;-69
2021/06/04 02:21:13;;;;;;;25.90;21.27;;;;;;;21.50;56.56;101956.00;4967623;28;123394;-69
2021/06/04 02:24:02;;;;;;;23.83;20.40;;;;;;;21.44;56.54;101953.75;4976718;28;108523;-69
2021/06/04 02:26:58;;;;;;;24.10;20.33;;;;;;;21.38;56.88;101956.88;4982100;28;110088;-69
2021/06/04 02:29:41;;;;;;;23.40;19.73;;;;;;;21.34;56.85;101960.75;4966948;28;123225;-69
2021/06/04 02:32:26;;;;;;;24.67;19.75;;;;;;;21.29;56.78;101962.94;4987135;28;123274;-68
2021/06/04 02:35:03;;;;;;;26.35;20.77;;;;;;;21.24;56.94;101965.09;4981436;28;108068;-69
2021/06/04 02:37:58;;;;;;;28.33;21.20;;;;;;;21.19;57.00;101963.59;4985986;28;109142;-69
2021/06/04 02:40:36;;;;;;;28.88;22.58;;;;;;;21.16;57.35;101977.28;4981422;28;126011;-68
2021/06/04 02:43:11;;;;;;;29.25;23.30;;;;;;;21.12;57.41;101975.78;4968690;28;125191;-69
2021/06/04 02:45:45;;;;;;;26.65;21.25;;;;;;;21.08;57.33;101974.28;4969723;28;107824;-69
2021/06/04 02:48:16;;;;;;;29.23;22.45;;;;;;;21.06;57.67;101976.25;4970965;28;109486;-69
2021/06/04 02:51:07;;;;;;;29.17;23.48;;;;;;;21.03;57.43;101973.75;4970387;28;123954;-69
2021/06/04 02:53:39;;;;;;;31.33;24.00;;;;;;;21.00;57.85;101973.97;4972102;28;123278;-69
2021/06/04 02:56:13;;;;;;;30.85;24.65;;;;;;;20.98;57.83;101975.91;4972958;28;110007;-69
2021/06/04 02:58:47;;;;;;;34.10;24.75;;;;;;;20.96;58.02;101981.44;4973417;28;110319;-69
2021/06/04 03:01:15;;;;;;;32.75;24.60;;;;;;;20.94;57.89;101979.78;4971701;28;124126;-69
2021/06/04 03:03:48;;;;;;;28.52;22.67;;;;;;;20.92;58.00;101976.34;4973106;28;124580;-69
2021/06/04 03:06:20;;;;;;;31.80;24.95;;;;;;;20.90;58.10;101978.28;4971454;28;109445;-69
2021/06/04 03:08:50;;;;;;;30.23;24.63;;;;;;;20.88;58.18;101969.47;4978293;28;109667;-69
2021/06/04 03:11:20;;;;;;;31.55;24.83;;;;;;;20.85;58.13;101981.31;4970889;28;122568;-69
2021/06/04 03:13:48;;;;;;;28.23;24.13;;;;;;;20.85;58.06;101985.81;4985774;28;122415;-69
2021/06/04 03:16:21;;;;;;;31.73;25.17;;;;;;;20.83;58.16;101993.16;4983744;28;108187;-69
2021/06/04 03:18:59;;;;;;;28.20;24.33;;;;;;;20.80;58.22;101988.84;4978542;28;110181;-69
2021/06/04 03:21:31;;;;;;;32.47;25.75;;;;;;;20.79;58.21;101998.78;4964621;28;123177;-69
2021/06/04 03:24:03;;;;;;;34.17;26.48;;;;;;;20.79;58.24;101996.09;4952823;28;124055;-69
2021/06/04 03:26:31;;;;;;;34.10;25.60;;;;;;;20.78;58.46;102002.41;4971964;28;109202;-68
2021/06/04 03:29:07;;;;;;;32.42;26.00;;;;;;;20.77;58.34;101997.13;4979013;28;109815;-69
2021/06/04 03:31:37;;;;;;;35.50;27.17;;;;;;;20.76;58.38;101998.13;4971460;28;124482;-69
2021/06/04 03:34:07;;;;;;;31.65;26.30;;;;;;;20.74;58.36;101995.53;4971590;28;123020;-69
2021/06/04 03:36:39;;;;;;;35.00;28.30;;;;;;;20.74;58.59;101990.16;4974676;28;108456;-69
2021/06/04 03:39:12;;;;;;;32.88;26.20;;;;;;;20.72;58.73;101997.47;4971443;28;110793;-69
2021/06/04 03:41:40;;;;;;;34.42;26.45;;;;;;;20.72;58.64;101986.69;4974861;28;123379;-69
2021/06/04 03:44:12;;;;;;;35.53;28.17;;;;;;;20.70;58.74;101994.03;4974691;28;123536;-69
2021/06/04 03:46:41;;;;;;;33.42;26.63;;;;;;;20.69;58.79;101992.28;4987281;28;108071;-69
2021/06/04 03:49:11;;;;;;;38.58;28.35;;;;;;;20.69;58.89;101997.69;4955725;28;109461;-69
2021/06/04 03:51:41;;;;;;;35.00;28.38;;;;;;;20.69;58.88;101994.13;4974577;28;123184;-69
2021/06/04 03:54:13;;;;;;;38.13;27.98;;;;;;;20.68;59.06;101995.97;4984134;28;123744;-69
2021/06/04 03:56:40;;;;;;;37.72;29.98;;;;;;;20.67;59.14;101993.38;4973435;28;110829;-69
2021/06/04 03:59:07;;;;;;;34.95;27.83;;;;;;;20.67;59.00;101993.38;4974541;28;109777;-69
2021/06/04 04:01:42;;;;;;;37.60;29.25;;;;;;;20.66;59.36;101992.50;4973968;28;124614;-69
2021/06/04 04:04:09;;;;;;;35.10;28.83;;;;;;;20.66;59.13;101997.88;4970712;28;123889;-69
2021/06/04 04:06:37;;;;;;;37.88;31.10;;;;;;;20.66;59.16;101995.19;4974397;28;109439;-68
2021/06/04 04:09:06;;;;;;;40.50;30.05;;;;;;;20.67;59.25;101994.22;4974243;28;110131;-68
2021/06/04 04:11:33;;;;;;;37.15;29.63;;;;;;;20.67;59.15;101994.22;4973619;28;124490;-71
2021/06/04 04:14:02;;;;;;;40.75;32.50;;;;;;;20.67;59.33;101993.38;4972711;28;123215;-71
2021/06/04 04:16:30;;;;;;;41.15;31.13;;;;;;;20.66;59.31;101992.50;4973960;28;109478;-68
2021/06/04 04:18:57;;;;;;;41.97;32.13;;;;;;;20.68;59.42;102001.34;4973872;28;110283;-69
2021/06/04 04:21:25;;;;;;;38.83;31.40;;;;;;;20.69;59.35;101994.97;4974201;28;124278;-69
2021/06/04 04:23:57;;;;;;;40.45;31.95;;;;;;;20.70;59.43;101994.03;4973532;28;124589;-69
2021/06/04 04:26:29;;;;;;;41.28;31.48;;;;;;;20.71;59.46;101995.72;4970828;28;108455;-68
2021/06/04 04:28:56;;;;;;;43.15;33.15;;;;;;;20.73;59.49;101993.78;4972525;28;109831;-69
2021/06/04 04:31:27;;;;;;;41.70;32.38;;;;;;;20.75;59.60;101997.25;4974762;28;124282;-69
2021/06/04 04:33:55;;;;;;;38.70;31.05;;;;;;;20.78;59.47;101999.72;4972510;28;123980;-69
2021/06/04 04:36:27;;;;;;;39.97;31.58;;;;;;;20.82;59.58;101999.53;4972713;28;109066;-69
2021/06/04 04:38:54;;;;;;;43.05;31.83;;;;;;;20.85;59.78;102001.97;4972281;28;109935;-69
2021/06/04 04:41:22;;;;;;;41.60;34.70;;;;;;;20.89;59.76;102003.47;4967605;28;123580;-69
2021/06/04 04:43:52;;;;;;;45.17;37.20;;;;;;;20.93;59.82;102010.41;4985966;28;123517;-69
2021/06/04 04:46:23;;;;;;;49.17;38.42;;;;;;;20.98;59.83;102013.63;4973722;28;110057;-69
2021/06/04 04:48:50;;;;;;;46.05;37.47;;;;;;;21.03;59.74;102006.06;4972418;28;110470;-69
2021/06/04 04:51:19;;;;;;;44.30;36.08;;;;;;;21.06;59.91;102011.25;4988058;28;123637;-70
2021/06/04 04:53:46;;;;;;;47.35;38.55;;;;;;;21.10;59.96;102012.75;4973816;28;123064;-69
2021/06/04 04:56:14;;;;;;;46.47;36.08;;;;;;;21.15;59.93;102016.00;4980695;28;109735;-70
2021/06/04 04:58:41;;;;;;;44.92;36.53;;;;;;;21.20;60.18;102008.41;4972941;28;108886;-70
2021/06/04 05:01:10;;;;;;;46.53;37.58;;;;;;;21.24;60.48;101997.44;4970643;28;124467;-69
2021/06/04 05:03:37;;;;;;;48.50;38.63;;;;;;;21.28;60.34;102004.31;4973888;28;123711;-69
2021/06/04 05:06:05;;;;;;;50.30;37.88;;;;;;;21.29;60.52;102009.59;4973518;28;108885;-69
2021/06/04 05:08:33;;;;;;;45.63;37.60;;;;;;;21.33;60.71;102012.94;4971502;28;109588;-69
2021/06/04 05:11:00;;;;;;;46.72;36.97;;;;;;;21.39;60.56;102012.50;4974276;28;123980;-69
2021/06/04 05:13:32;;;;;;;47.80;36.05;;;;;;;21.45;60.53;102004.00;4984181;28;124179;-70
2021/06/04 05:16:03;;;;;;;43.67;35.60;;;;;;;21.50;60.49;101999.13;4988319;28;108561;-69
2021/06/04 05:18:34;;;;;;;43.17;35.55;;;;;;;21.57;60.54;102002.25;4955297;28;109110;-71
2021/06/04 05:21:04;;;;;;;48.40;35.38;;;;;;;21.61;60.25;102010.97;4971018;28;125168;-70
2021/06/04 05:23:32;;;;;;;47.08;34.20;;;;;;;21.65;60.25;102009.78;4979326;28;124075;-70
2021/06/04 05:25:59;;;;;;;41.45;32.85;;;;;;;21.69;60.07;102013.97;4972776;28;109334;-70
2021/06/04 05:28:28;;;;;;;45.88;33.88;;;;;;;21.75;60.06;102024.28;4973781;28;110176;-70
2021/06/04 05:31:02;;;;;;;38.38;32.88;;;;;;;21.81;59.80;102023.84;4973239;28;123956;-70
2021/06/04 05:33:34;;;;;;;40.35;31.33;;;;;;;21.85;59.41;102017.25;4969878;28;123904;-71
2021/06/04 05:36:06;;;;;;;39.80;31.75;;;;;;;21.93;59.42;102022.09;4977594;28;109695;-70
2021/06/04 05:38:33;;;;;;;41.80;32.35;;;;;;;22.01;59.22;102035.00;4971107;28;108887;-70
2021/06/04 05:41:01;;;;;;;41.78;32.65;;;;;;;22.07;59.15;102029.97;4969821;28;122962;-71
2021/06/04 05:43:30;;;;;;;40.90;32.22;;;;;;;22.15;58.94;102026.72;4972014;28;124649;-70
2021/06/04 05:45:59;;;;;;;45.47;32.67;;;;;;;22.21;58.40;102026.25;4968384;28;108299;-70
2021/06/04 05:48:26;;;;;;;44.90;32.90;;;;;;;22.28;58.33;102032.06;4970634;28;110468;-70
2021/06/04 05:50:58;;;;;;;43.25;33.10;;;;;;;22.32;58.21;102029.03;4970124;28;124300;-70
2021/06/04 05:53:28;;;;;;;39.97;30.90;;;;;;;22.39;57.51;102039.38;4976320;28;123832;-70
2021/06/04 05:55:56;;;;;;;39.10;29.17;;;;;;;22.45;57.11;102038.88;4973070;28;109198;-70
2021/06/04 05:58:25;;;;;;;39.95;28.02;;;;;;;22.48;57.21;102044.06;4969881;28;109267;-69
2021/06/04 06:00:57;;;;;;;41.95;29.05;;;;;;;22.55;57.00;102039.91;4971041;28;124195;-71
2021/06/04 06:03:28;;;;;;;36.72;29.25;;;;;;;22.63;57.17;102039.31;4970003;28;124055;-70
2021/06/04 06:05:56;;;;;;;39.03;28.58;;;;;;;22.69;56.69;102047.78;4972367;28;109622;-70
2021/06/04 06:08:23;;;;;;;39.28;28.88;;;;;;;22.73;56.64;102049.31;4971265;28;109416;-70
2021/06/04 06:10:51;;;;;;;37.17;30.30;;;;;;;22.80;56.68;102048.81;4971427;28;122990;-70
2021/06/04 06:13:19;;;;;;;38.50;30.00;;;;;;;22.87;56.74;102044.66;4970250;28;124679;-70
2021/06/04 06:15:47;;;;;;;36.58;29.27;;;;;;;22.96;56.89;102049.31;4973073;28;109369;-70
2021/06/04 06:18:14;;;;;;;39.75;30.92;;;;;;;23.03;56.42;102045.19;4972758;28;110109;-70
2021/06/04 06:20:43;;;;;;;38.53;30.58;;;;;;;23.07;56.35;102041.25;4987395;28;123327;-70
2021/06/04 06:23:14;;;;;;;41.38;31.27;;;;;;;23.12;56.07;102055.28;4970922;28;123208;-70
2021/06/04 06:25:48;;;;;;;36.95;31.00;;;;;;;23.15;55.86;102048.78;4970579;28;109922;-70
2021/06/04 06:28:19;;;;;;;37.58;31.77;;;;;;;23.18;56.05;102042.28;4969709;28;109303;-71
2021/06/04 06:30:47;;;;;;;41.03;32.25;;;;;;;23.22;55.72;102043.75;4971380;28;122993;-70
2021/06/04 06:33:14;;;;;;;39.55;30.52;;;;;;;23.27;55.85;102046.94;4971445;28;124514;-69
2021/06/04 06:35:51;;;;;;;42.40;31.73;;;;;;;23.33;55.65;102043.75;4972996;28;109963;-71
2021/06/04 06:38:21;;;;;;;44.35;32.50;;;;;;;23.39;55.57;102051.34;4971749;28;109199;-70
2021/06/04 06:40:48;;;;;;;40.40;31.98;;;;;;;23.44;55.15;102046.44;4970989;28;124503;-71
2021/06/04 06:43:26;;;;;;;43.80;33.53;;;;;;;23.47;55.07;102048.91;4972181;28;123307;-70
2021/06/04 06:46:06;;;;;;;40.03;33.13;;;;;;;23.49;54.95;102046.94;4972005;28;109485;-71
2021/06/04 06:48:35;;;;;;;42.92;33.08;;;;;;;23.54;55.30;102051.09;4853855;28;110861;-64
2021/06/04 06:51:04;;;;;;;42.60;32.35;;;;;;;23.60;55.33;102058.72;4854493;28;123503;-64
2021/06/04 06:53:31;;;;;;;42.15;33.80;;;;;;;23.65;55.37;102062.75;4853498;28;123974;-64
2021/06/04 06:55:58;;;;;;;40.28;32.85;;;;;;;23.69;55.46;102052.56;4852283;28;109010;-64
2021/06/04 06:58:26;;;;;;;45.60;35.20;;;;;;;23.74;55.33;102055.75;4834427;28;110495;-64
2021/06/04 07:00:55;;;;;;;42.50;33.30;;;;;;;23.78;55.06;102050.97;4837043;28;123834;-64
2021/06/04 07:03:29;;;;;;;44.20;32.72;;;;;;;23.82;54.80;102050.59;4835079;29;124185;-64
2021/06/04 07:06:00;;;;;;;39.70;31.93;;;;;;;23.88;54.67;102047.41;4835211;28;109233;-64
2021/06/04 07:08:28;;;;;;;41.13;31.52;;;;;;;23.98;54.68;102046.63;4886579;28;109819;-64
2021/06/04 07:10:56;;;;;;;42.85;33.25;;;;;;;24.04;55.02;102056.97;4839822;29;123869;-64
2021/06/04 07:13:26;;;;;;;41.15;33.83;;;;;;;24.12;54.39;102054.47;4850753;28;124145;-64
2021/06/04 07:15:56;;;;;;;45.58;34.85;;;;;;;24.19;54.68;102061.09;4838838;29;109363;-64
2021/06/04 07:18:24;;;;;;;42.60;34.97;;;;;;;24.26;54.50;102061.41;4836583;29;110689;-64
2021/06/04 07:20:52;;;;;;;46.85;35.10;;;;;;;24.33;54.58;102045.53;4839004;29;123235;-64
2021/06/04 07:23:20;;;;;;;47.95;36.28;;;;;;;24.39;54.77;102066.66;4837940;29;124418;-64
2021/06/04 07:25:48;;;;;;;49.30;37.88;;;;;;;24.48;54.74;102060.47;4837573;29;109699;-64
2021/06/04 07:28:17;;;;;;;49.60;39.17;;;;;;;24.58;54.74;102066.00;4838188;29;109832;-64
2021/06/04 07:30:48;;;;;;;51.42;39.28;;;;;;;24.67;54.46;102071.47;4838057;28;124340;-64
2021/06/04 07:33:23;;;;;;;47.15;37.78;;;;;;;24.77;53.95;102076.09;4838761;28;122895;-64
2021/06/04 07:35:51;;;;;;;45.97;36.88;;;;;;;24.86;53.73;102064.47;4837302;29;109135;-65
2021/06/04 07:38:20;;;;;;;48.78;37.97;;;;;;;24.92;53.63;102069.38;4838213;28;109604;-64
2021/06/04 07:40:47;;;;;;;46.67;36.40;;;;;;;24.98;53.50;102079.69;4837228;29;124148;-64
2021/06/04 07:43:18;;;;;;;46.00;35.03;;;;;;;25.06;53.18;102081.72;4828867;29;124499;-64
2021/06/04 07:45:45;;;;;;;48.47;35.08;;;;;;;25.13;53.06;102077.50;4820340;29;109439;-64
2021/06/04 07:48:16;;;;;;;45.67;34.05;;;;;;;25.22;52.90;102076.69;4828713;29;110038;-65
2021/06/04 07:50:45;;;;;;;44.13;33.40;;;;;;;25.33;52.57;102075.75;4837029;28;124744;-65
2021/06/04 07:53:15;;;;;;;38.22;31.30;;;;;;;25.40;52.43;102074.22;4836827;28;123960;-64
2021/06/04 07:55:43;;;;;;;41.47;31.38;;;;;;;25.45;51.46;102074.66;4825036;28;109041;-64
2021/06/04 07:58:11;;;;;;;42.00;31.55;;;;;;;25.47;51.69;102070.94;4837862;29;108838;-64
2021/06/04 08:00:39;;;;;;;40.22;29.65;;;;;;;25.50;51.25;102078.81;4829381;28;124451;-64
2021/06/04 08:03:16;;;;;;;42.37;30.07;;;;;;;25.49;50.85;102071.69;4835763;28;123041;-64
2021/06/04 08:05:44;;;;;;;43.03;31.73;;;;;;;25.49;50.92;102071.69;4827021;29;110101;-65
2021/06/04 08:08:12;;;;;;;40.22;31.35;;;;;;;25.49;50.22;102066.28;4837089;28;109177;-65
2021/06/04 08:10:40;;;;;;;44.13;32.33;;;;;;;25.49;50.90;102077.13;4852013;28;124274;-64
2021/06/04 08:13:15;;;;;;;42.97;31.98;;;;;;;25.51;51.20;102069.72;4836625;28;123996;-64
2021/06/04 08:15:59;;;;;;;43.15;31.73;;;;;;;25.56;51.03;102062.00;4845777;28;108148;-64
2021/06/04 08:18:30;;;;;;;36.67;28.35;;;;;;;25.65;51.24;102061.16;4835734;28;110706;-64
2021/06/04 08:20:59;;;;;;;38.92;28.45;;;;;;;25.79;51.19;102063.50;4837100;28;124859;-65
2021/06/04 08:23:30;;;;;;;35.55;26.67;;;;;;;25.96;50.18;102058.44;4836239;28;123813;-65
2021/06/04 08:25:59;;;;;;;33.85;26.85;;;;;;;26.13;50.29;102065.88;4828234;29;109141;-65
2021/06/04 08:28:28;;;;;;;37.10;27.55;;;;;;;26.29;50.26;102059.88;4844361;28;109793;-64
2021/06/04 08:30:56;;;;;;;33.92;27.45;;;;;;;26.41;49.33;102058.75;4828320;28;124837;-64
2021/06/04 08:33:29;;;;;;;37.05;27.33;;;;;;;26.46;48.52;102055.56;4833000;28;123743;-65
2021/06/04 08:35:57;;;;;;;37.58;28.13;;;;;;;26.55;48.31;102053.88;4836449;29;109565;-65
2021/06/04 08:38:26;;;;;;;34.25;26.42;;;;;;;26.60;48.21;102051.63;4838246;28;108966;-65
2021/06/04 08:40:53;;;;;;;31.50;25.33;;;;;;;26.65;47.80;102049.28;4833825;29;123807;-65
2021/06/04 08:43:45;;;;;;;36.72;27.33;;;;;;;26.73;48.28;102051.28;4836136;28;123967;-65
2021/06/04 08:46:16;;;;;;;36.40;26.77;;;;;;;26.87;47.48;102053.56;4838342;29;108447;-66
2021/06/04 08:48:49;;;;;;;33.70;26.60;;;;;;;26.95;47.11;102050.94;4838604;29;110434;-65
2021/06/04 08:51:16;;;;;;;30.48;25.55;;;;;;;27.00;46.79;102048.66;4837707;28;123008;-65
2021/06/04 08:54:10;;;;;;;30.98;26.48;;;;;;;27.07;47.37;102053.50;4836910;28;125238;-65
2021/06/04 08:57:00;;;;;;;27.63;22.92;;;;;;;27.16;46.58;102044.44;4826058;28;111379;-65
2021/06/04 08:59:29;;;;;;;29.73;23.45;;;;;;;27.25;46.20;102050.88;4826321;28;109935;-66
2021/06/04 09:02:05;;;;;;;35.13;23.52;;;;;;;27.36;45.79;102050.69;4820362;29;124797;-65
2021/06/04 09:04:42;;;;;;;30.95;23.85;;;;;;;27.48;45.24;102051.34;4822069;29;124062;-66
2021/06/04 09:07:24;;;;;;;31.77;25.20;;;;;;;27.57;44.89;102055.91;4837018;28;109535;-66
2021/06/04 09:10:17;;;;;;;30.02;24.77;;;;;;;27.62;45.25;102053.59;4837731;29;109062;-66
2021/06/04 09:13:03;;;;;;;31.63;23.48;;;;;;;27.74;44.76;102052.34;4854282;28;124432;-66
2021/06/04 09:15:34;;;;;;;30.25;24.30;;;;;;;27.86;44.25;102049.41;4822451;28;123903;-65
2021/06/04 09:18:28;;;;;;;29.85;23.35;;;;;;;27.97;44.05;102057.41;4849276;28;108249;-65
2021/06/04 09:21:01;;;;;;;28.90;23.77;;;;;;;28.09;44.94;102052.59;4822519;29;110043;-65
2021/06/04 09:23:35;;;;;;;31.58;24.52;;;;;;;28.26;45.05;102057.19;4826336;28;124370;-65
2021/06/04 09:26:04;;;;;;;32.90;25.27;;;;;;;28.41;43.67;102053.94;4829768;28;124691;-65
2021/06/04 09:28:33;;;;;;;32.88;25.35;;;;;;;28.47;44.74;102048.69;4827063;28;109141;-66
2021/06/04 09:31:25;;;;;;;32.88;26.48;;;;;;;28.58;44.98;102044.88;4820542;29;110306;-66
2021/06/04 09:33:56;;;;;;;29.88;25.10;;;;;;;28.69;44.35;102046.50;4820468;29;124176;-66
2021/06/04 09:36:27;;;;;;;30.27;25.00;;;;;;;28.76;43.15;102050.28;4836551;28;124111;-66
2021/06/04 09:39:03;;;;;;;29.35;22.65;;;;;;;28.76;43.38;102053.00;4831873;28;109020;-66
2021/06/04 09:41:40;;;;;;;23.90;21.00;;;;;;;28.74;43.30;102052.31;4835059;28;108901;-65
2021/06/04 09:44:16;;;;;;;26.85;21.33;;;;;;;28.76;43.17;102053.00;4830893;28;124902;-65
2021/06/04 09:46:51;;;;;;;25.27;20.95;;;;;;;28.78;42.03;102053.72;4827628;28;124737;-66
2021/06/04 09:49:42;;;;;;;24.52;18.48;;;;;;;28.76;41.73;102047.56;4823106;28;109309;-65
2021/06/04 09:52:33;;;;;;;24.92;18.10;;;;;;;28.79;42.31;102047.25;4826443;29;110299;-66
2021/06/04 09:55:22;;;;;;;18.48;15.30;;;;;;;28.87;42.04;102044.56;4830105;28;124038;-66
2021/06/04 09:58:28;;;;;;;22.05;14.10;;;;;;;28.89;41.76;102037.09;4834483;28;124006;-66
2021/06/04 10:01:03;;;;;;;15.60;12.73;;;;;;;28.91;41.39;102046.00;4819862;28;108594;-66
2021/06/04 10:03:47;;;;;;;16.67;13.48;;;;;;;28.95;40.68;102051.09;4848495;28;109238;-66
2021/06/04 10:06:22;;;;;;;16.42;12.38;;;;;;;28.95;40.44;102045.66;4830889;28;124100;-66
2021/06/04 10:08:52;;;;;;;13.07;10.98;;;;;;;28.97;40.20;102049.06;4819301;28;124736;-67
2021/06/04 10:11:26;;;;;;;17.20;12.10;;;;;;;29.00;41.20;102043.31;4822753;28;109587;-66
2021/06/04 10:14:07;;;;;;;19.20;12.23;;;;;;;29.02;41.24;102039.38;4828663;29;110372;-66
2021/06/04 10:17:01;;;;;;;15.68;12.02;;;;;;;29.06;40.77;102048.09;4834895;28;124501;-66
2021/06/04 10:19:39;;;;;;;14.20;9.30;;;;;;;29.05;40.04;102040.94;4834334;28;123059;-66
2021/06/04 10:22:13;;;;;;;12.68;10.65;;;;;;;29.04;38.97;102045.53;4817582;29;109514;-66
2021/06/04 10:24:50;;;;;;;16.73;12.85;;;;;;;29.02;39.53;102046.72;4840122;28;108820;-67
2021/06/04 10:27:42;;;;;;;20.75;15.98;;;;;;;29.02;40.41;102042.09;4823283;28;124456;-66
2021/06/04 10:30:15;;;;;;;17.45;12.80;;;;;;;29.05;39.63;102040.94;4833486;28;124521;-66
2021/06/04 10:32:54;;;;;;;12.40;10.20;;;;;;;29.08;39.30;102040.59;4835007;28;109973;-66
2021/06/04 10:35:42;;;;;;;12.77;9.48;;;;;;;29.15;38.93;102030.78;4832328;28;110225;-66
2021/06/04 10:38:38;;;;;;;17.13;13.75;;;;;;;29.21;38.61;102023.84;4837065;28;124372;-66
2021/06/04 10:41:14;;;;;;;22.02;15.63;;;;;;;29.26;39.96;102027.78;4821994;29;124510;-66
2021/06/04 10:43:44;;;;;;;23.58;18.42;;;;;;;29.28;39.10;102020.28;4819985;29;110461;-66
2021/06/04 10:46:33;;;;;;;20.15;15.60;;;;;;;29.28;39.50;102020.28;4817977;29;110781;-66
2021/06/04 10:49:28;;;;;;;23.92;16.85;;;;;;;29.33;39.11;102016.19;4819852;28;124183;-66
2021/06/04 10:52:21;;;;;;;17.48;13.73;;;;;;;29.37;39.07;102013.00;4823429;29;124694;-66
2021/06/04 10:55:08;;;;;;;20.92;16.33;;;;;;;29.42;38.23;102007.03;4823866;29;96792;-66
2021/06/04 10:57:47;;;;;;;17.20;14.00;;;;;;;29.46;38.66;102000.22;4824179;28;110395;-66
2021/06/04 11:00:26;;;;;;;21.08;16.60;;;;;;;29.53;38.94;102000.41;4823401;29;124848;-66
2021/06/04 11:03:05;;;;;;;19.88;16.25;;;;;;;29.61;38.42;101998.56;4822989;28;124261;-66
2021/06/04 11:05:46;;;;;;;23.48;18.05;;;;;;;29.69;37.94;101995.84;4820904;28;110253;-66
2021/06/04 11:08:32;;;;;;;20.20;17.02;;;;;;;29.74;38.13;101991.78;4821146;28;110346;-66
2021/06/04 11:11:09;;;;;;;21.60;16.88;;;;;;;29.82;39.77;101995.41;4819373;28;124166;-66
2021/06/04 11:14:10;;;;;;;23.77;17.95;;;;;;;29.89;38.85;101990.97;4823624;28;124685;-66
2021/06/04 11:16:43;;;;;;;22.27;17.75;;;;;;;29.97;38.31;101995.59;4838973;28;109450;-69
2021/06/04 11:19:22;;;;;;;21.10;16.48;;;;;;;30.02;38.00;101990.47;4842571;28;110562;-68
2021/06/04 11:21:52;;;;;;;25.42;17.50;;;;;;;30.07;37.41;101988.06;4836878;28;124059;-68
2021/06/04 11:24:46;;;;;;;24.88;17.73;;;;;;;30.11;37.79;101976.81;4821909;28;124029;-67
2021/06/04 11:27:23;;;;;;;25.60;17.67;;;;;;;30.13;37.89;101974.78;4839460;28;109576;-67
2021/06/04 11:29:50;;;;;;;33.08;17.88;;;;;;;30.17;38.03;101971.50;4823230;28;110340;-68
2021/06/04 11:32:36;;;;;;;20.70;16.75;;;;;;;30.21;38.32;101972.03;4824545;28;124194;-68